sensor_id;sensor_type;location;lat;lon;timestamp;pressure;altitude;pressure_sealevel;temperature;humidity
39443;BME280;25147;52.142;9.960;2023-10-08T00:00:23;100996.28;;;14.28;100.00
39443;BME280;25147;52.142;9.960;2023-10-08T00:03:09;101007.78;;;13.81;100.00
39443;BME280;25147;52.142;9.960;2023-10-08T00:05:37;100909.66;;;12.83;100.00
39443;BME280;25147;52.142;9.960;2023-10-08T00:08:05;101021.03;;;13.30;100.00
39443;BME280;25147;52.142;9.960;2023-10-08T00:10:34;101015.19;;;13.13;100.00
39443;BME280;25147;52.142;9.960;2023-10-08T00:13:05;101019.84;;;12.95;100.00
39443;BME280;25147;52.142;9.960;2023-10-08T00:15:34;101002.78;;;12.67;100.00
39443;BME280;25147;52.142;9.960;2023-10-08T00:18:02;101040.41;;;12.69;100.00
39443;BME280;25147;52.142;9.960;2023-10-08T00:20:31;100993.66;;;12.32;100.00
39443;BME280;25147;52.142;9.960;2023-10-08T00:23:03;101068.47;;;12.63;100.00
39443;BME280;25147;52.142;9.960;2023-10-08T00:25:33;100993.09;;;12.08;100.00
39443;BME280;25147;52.142;9.960;2023-10-08T00:28:08;101073.03;;;12.52;100.00
39443;BME280;25147;52.142;9.960;2023-10-08T00:30:40;101103.63;;;12.56;100.00
39443;BME280;25147;52.142;9.960;2023-10-08T00:33:08;101069.66;;;12.44;100.00
39443;BME280;25147;52.142;9.960;2023-10-08T00:35:37;101084.47;;;12.50;100.00
39443;BME280;25147;52.142;9.960;2023-10-08T00:38:06;100976.72;;;11.88;100.00
39443;BME280;25147;52.142;9.960;2023-10-08T00:40:40;101079.91;;;12.59;100.00
39443;BME280;25147;52.142;9.960;2023-10-08T00:43:29;100945.38;;;11.75;100.00
39443;BME280;25147;52.142;9.960;2023-10-08T00:45:57;101052.22;;;12.37;100.00
39443;BME280;25147;52.142;9.960;2023-10-08T00:48:25;101050.50;;;12.36;100.00
39443;BME280;25147;52.142;9.960;2023-10-08T00:50:55;100995.97;;;11.90;100.00
39443;BME280;25147;52.142;9.960;2023-10-08T00:53:35;101103.81;;;12.41;100.00
39443;BME280;25147;52.142;9.960;2023-10-08T00:56:06;101072.69;;;12.10;100.00
39443;BME280;25147;52.142;9.960;2023-10-08T00:58:41;101124.78;;;12.44;100.00
39443;BME280;25147;52.142;9.960;2023-10-08T01:01:11;101134.47;;;12.40;100.00
39443;BME280;25147;52.142;9.960;2023-10-08T01:03:42;100800.22;;;10.32;100.00
39443;BME280;25147;52.142;9.960;2023-10-08T01:06:11;100980.78;;;11.37;100.00
39443;BME280;25147;52.142;9.960;2023-10-08T01:08:41;101063.34;;;11.84;100.00
39443;BME280;25147;52.142;9.960;2023-10-08T01:11:17;101157.38;;;12.28;100.00
39443;BME280;25147;52.142;9.960;2023-10-08T01:13:46;101081.59;;;11.97;100.00
39443;BME280;25147;52.142;9.960;2023-10-08T01:16:14;101094.78;;;11.86;100.00
39443;BME280;25147;52.142;9.960;2023-10-08T01:18:43;101175.03;;;12.13;100.00
39443;BME280;25147;52.142;9.960;2023-10-08T01:21:17;101143.72;;;11.95;100.00
39443;BME280;25147;52.142;9.960;2023-10-08T01:24:01;101117.72;;;11.67;100.00
39443;BME280;25147;52.142;9.960;2023-10-08T01:26:31;101156.03;;;11.83;100.00
39443;BME280;25147;52.142;9.960;2023-10-08T01:29:08;101174.41;;;11.85;100.00
39443;BME280;25147;52.142;9.960;2023-10-08T01:31:44;101091.84;;;11.30;100.00
39443;BME280;25147;52.142;9.960;2023-10-08T01:34:11;101200.75;;;11.70;100.00
39443;BME280;25147;52.142;9.960;2023-10-08T01:36:44;101159.03;;;11.37;100.00
39443;BME280;25147;52.142;9.960;2023-10-08T01:39:12;101153.06;;;11.15;100.00
39443;BME280;25147;52.142;9.960;2023-10-08T01:41:43;101204.59;;;11.21;100.00
39443;BME280;25147;52.142;9.960;2023-10-08T01:44:10;101241.28;;;11.26;100.00
39443;BME280;25147;52.142;9.960;2023-10-08T01:46:37;101244.88;;;11.03;100.00
39443;BME280;25147;52.142;9.960;2023-10-08T01:49:06;101255.44;;;10.88;100.00
39443;BME280;25147;52.142;9.960;2023-10-08T01:51:39;101178.81;;;10.19;100.00
39443;BME280;25147;52.142;9.960;2023-10-08T01:54:13;101245.97;;;10.43;100.00
39443;BME280;25147;52.142;9.960;2023-10-08T01:56:43;101113.53;;;9.52;100.00
39443;BME280;25147;52.142;9.960;2023-10-08T01:59:10;101261.69;;;10.27;100.00
39443;BME280;25147;52.142;9.960;2023-10-08T02:01:39;101262.56;;;10.24;100.00
39443;BME280;25147;52.142;9.960;2023-10-08T02:04:06;101265.16;;;10.22;100.00
39443;BME280;25147;52.142;9.960;2023-10-08T02:06:35;101280.00;;;10.28;100.00
39443;BME280;25147;52.142;9.960;2023-10-08T02:09:02;101293.09;;;10.30;100.00
39443;BME280;25147;52.142;9.960;2023-10-08T02:11:43;101278.25;;;10.19;100.00
39443;BME280;25147;52.142;9.960;2023-10-08T02:14:11;101300.06;;;10.40;100.00
39443;BME280;25147;52.142;9.960;2023-10-08T02:16:40;101291.38;;;10.36;100.00
39443;BME280;25147;52.142;9.960;2023-10-08T02:19:08;101271.31;;;10.31;100.00
39443;BME280;25147;52.142;9.960;2023-10-08T02:21:36;101249.47;;;10.29;100.00
39443;BME280;25147;52.142;9.960;2023-10-08T02:24:06;101216.31;;;10.24;100.00
39443;BME280;25147;52.142;9.960;2023-10-08T02:26:34;101216.34;;;10.31;100.00
39443;BME280;25147;52.142;9.960;2023-10-08T02:29:03;101100.47;;;9.59;100.00
39443;BME280;25147;52.142;9.960;2023-10-08T02:31:36;101274.72;;;10.56;100.00
39443;BME280;25147;52.142;9.960;2023-10-08T02:34:04;100892.44;;;8.46;100.00
39443;BME280;25147;52.142;9.960;2023-10-08T02:36:34;100919.41;;;8.53;100.00
39443;BME280;25147;52.142;9.960;2023-10-08T02:39:03;101182.28;;;10.34;100.00
39443;BME280;25147;52.142;9.960;2023-10-08T02:41:32;101265.91;;;10.84;100.00
39443;BME280;25147;52.142;9.960;2023-10-08T02:43:59;101246.72;;;10.78;100.00
39443;BME280;25147;52.142;9.960;2023-10-08T02:46:27;101208.38;;;10.68;100.00
39443;BME280;25147;52.142;9.960;2023-10-08T02:48:58;101146.53;;;10.34;100.00
39443;BME280;25147;52.142;9.960;2023-10-08T02:51:29;101260.63;;;10.98;100.00
39443;BME280;25147;52.142;9.960;2023-10-08T02:53:56;101279.81;;;11.08;100.00
39443;BME280;25147;52.142;9.960;2023-10-08T02:56:23;101264.94;;;11.10;100.00
39443;BME280;25147;52.142;9.960;2023-10-08T02:58:49;101263.22;;;11.08;100.00
39443;BME280;25147;52.142;9.960;2023-10-08T03:01:16;101230.06;;;10.94;100.00
39443;BME280;25147;52.142;9.960;2023-10-08T03:03:45;101273.59;;;11.23;100.00
39443;BME280;25147;52.142;9.960;2023-10-08T03:06:12;101275.38;;;11.22;100.00
39443;BME280;25147;52.142;9.960;2023-10-08T03:08:40;101284.13;;;11.15;100.00
39443;BME280;25147;52.142;9.960;2023-10-08T03:11:09;101263.19;;;11.14;100.00
39443;BME280;25147;52.142;9.960;2023-10-08T03:13:44;101244.84;;;11.09;100.00
39443;BME280;25147;52.142;9.960;2023-10-08T03:16:12;101242.22;;;11.12;100.00
39443;BME280;25147;52.142;9.960;2023-10-08T03:18:40;101257.88;;;11.24;100.00
39443;BME280;25147;52.142;9.960;2023-10-08T03:21:09;101240.38;;;11.28;100.00
39443;BME280;25147;52.142;9.960;2023-10-08T03:23:46;101253.47;;;11.31;100.00
39443;BME280;25147;52.142;9.960;2023-10-08T03:26:16;101242.19;;;11.20;100.00
39443;BME280;25147;52.142;9.960;2023-10-08T03:29:00;101274.47;;;11.30;100.00
39443;BME280;25147;52.142;9.960;2023-10-08T03:31:33;101273.56;;;11.29;100.00
39443;BME280;25147;52.142;9.960;2023-10-08T03:34:16;101212.63;;;10.90;100.00
39443;BME280;25147;52.142;9.960;2023-10-08T03:36:47;101286.69;;;11.29;100.00
39443;BME280;25147;52.142;9.960;2023-10-08T03:39:15;101290.19;;;11.30;100.00
39443;BME280;25147;52.142;9.960;2023-10-08T03:41:44;101297.16;;;11.32;100.00
39443;BME280;25147;52.142;9.960;2023-10-08T03:44:25;101270.16;;;11.18;100.00
39443;BME280;25147;52.142;9.960;2023-10-08T03:46:55;101303.31;;;11.28;100.00
39443;BME280;25147;52.142;9.960;2023-10-08T03:49:23;101318.09;;;11.35;100.00
39443;BME280;25147;52.142;9.960;2023-10-08T03:51:55;101215.34;;;10.73;100.00
39443;BME280;25147;52.142;9.960;2023-10-08T03:54:23;101261.50;;;10.96;100.00
39443;BME280;25147;52.142;9.960;2023-10-08T03:56:56;101288.50;;;11.19;100.00
39443;BME280;25147;52.142;9.960;2023-10-08T03:59:23;101321.63;;;11.31;100.00
39443;BME280;25147;52.142;9.960;2023-10-08T04:02:01;101326.84;;;11.39;100.00
39443;BME280;25147;52.142;9.960;2023-10-08T04:04:36;101271.09;;;11.01;100.00
39443;BME280;25147;52.142;9.960;2023-10-08T04:07:18;101296.31;;;11.27;100.00
39443;BME280;25147;52.142;9.960;2023-10-08T04:09:54;101323.34;;;11.38;100.00
39443;BME280;25147;52.142;9.960;2023-10-08T04:12:31;101234.50;;;10.81;100.00
39443;BME280;25147;52.142;9.960;2023-10-08T04:15:00;101325.13;;;11.32;100.00
39443;BME280;25147;52.142;9.960;2023-10-08T04:17:27;101336.50;;;11.31;100.00
39443;BME280;25147;52.142;9.960;2023-10-08T04:19:54;101350.50;;;11.30;100.00
39443;BME280;25147;52.142;9.960;2023-10-08T04:22:25;101338.25;;;11.30;100.00
39443;BME280;25147;52.142;9.960;2023-10-08T04:24:51;101310.38;;;11.06;100.00
39443;BME280;25147;52.142;9.960;2023-10-08T04:27:19;101333.03;;;11.21;100.00
39443;BME280;25147;52.142;9.960;2023-10-08T04:29:47;101343.50;;;11.30;100.00
39443;BME280;25147;52.142;9.960;2023-10-08T04:32:15;101346.94;;;11.35;100.00
39443;BME280;25147;52.142;9.960;2023-10-08T04:34:50;101287.72;;;10.96;100.00
39443;BME280;25147;52.142;9.960;2023-10-08T04:37:19;101361.81;;;11.35;100.00
39443;BME280;25147;52.142;9.960;2023-10-08T04:39:47;101355.69;;;11.40;100.00
39443;BME280;25147;52.142;9.960;2023-10-08T04:42:23;101276.38;;;10.91;100.00
39443;BME280;25147;52.142;9.960;2023-10-08T04:44:52;101324.31;;;11.22;100.00
39443;BME280;25147;52.142;9.960;2023-10-08T04:47:19;101326.00;;;11.29;100.00
39443;BME280;25147;52.142;9.960;2023-10-08T04:49:57;101310.31;;;11.17;100.00
39443;BME280;25147;52.142;9.960;2023-10-08T04:52:23;101342.59;;;11.33;100.00
39443;BME280;25147;52.142;9.960;2023-10-08T04:54:54;101343.50;;;11.30;100.00
39443;BME280;25147;52.142;9.960;2023-10-08T04:57:22;101362.66;;;11.44;100.00
39443;BME280;25147;52.142;9.960;2023-10-08T04:59:51;101344.34;;;11.32;100.00
39443;BME280;25147;52.142;9.960;2023-10-08T05:02:18;101297.28;;;11.06;100.00
39443;BME280;25147;52.142;9.960;2023-10-08T05:05:00;101314.69;;;11.13;100.00
39443;BME280;25147;52.142;9.960;2023-10-08T05:07:48;101367.88;;;11.43;100.00
39443;BME280;25147;52.142;9.960;2023-10-08T05:10:27;101391.50;;;11.41;100.00
39443;BME280;25147;52.142;9.960;2023-10-08T05:13:18;101342.66;;;11.20;100.00
39443;BME280;25147;52.142;9.960;2023-10-08T05:15:56;101340.88;;;11.22;100.00
39443;BME280;25147;52.142;9.960;2023-10-08T05:18:37;101361.81;;;11.35;100.00
39443;BME280;25147;52.142;9.960;2023-10-08T05:21:22;101338.25;;;11.30;100.00
39443;BME280;25147;52.142;9.960;2023-10-08T05:24:06;101281.59;;;10.94;100.00
39443;BME280;25147;52.142;9.960;2023-10-08T05:26:39;101374.06;;;11.36;100.00
39443;BME280;25147;52.142;9.960;2023-10-08T05:29:14;101347.03;;;11.15;100.00
39443;BME280;25147;52.142;9.960;2023-10-08T05:32:17;101341.81;;;11.12;100.00
39443;BME280;25147;52.142;9.960;2023-10-08T05:35:05;101391.53;;;11.34;100.00
39443;BME280;25147;52.142;9.960;2023-10-08T05:37:45;101388.88;;;11.35;100.00
39443;BME280;25147;52.142;9.960;2023-10-08T05:40:17;101382.84;;;11.22;100.00
39443;BME280;25147;52.142;9.960;2023-10-08T05:43:21;101420.38;;;11.34;100.00
39443;BME280;25147;52.142;9.960;2023-10-08T05:46:11;101360.19;;;10.98;100.00
39443;BME280;25147;52.142;9.960;2023-10-08T05:49:04;101403.78;;;11.22;100.00
39443;BME280;25147;52.142;9.960;2023-10-08T05:51:51;101409.94;;;11.21;100.00
39443;BME280;25147;52.142;9.960;2023-10-08T05:54:32;101440.44;;;11.41;100.00
39443;BME280;25147;52.142;9.960;2023-10-08T05:57:12;101445.69;;;11.39;100.00
39443;BME280;25147;52.142;9.960;2023-10-08T05:59:51;101354.13;;;10.79;100.00
39443;BME280;25147;52.142;9.960;2023-10-08T06:02:35;101442.19;;;11.39;100.00
39443;BME280;25147;52.142;9.960;2023-10-08T06:05:25;101416.94;;;11.19;100.00
39443;BME280;25147;52.142;9.960;2023-10-08T06:07:58;101415.16;;;11.15;100.00
39443;BME280;25147;52.142;9.960;2023-10-08T06:10:36;101460.56;;;11.34;100.00
39443;BME280;25147;52.142;9.960;2023-10-08T06:13:13;101464.06;;;11.30;100.00
39443;BME280;25147;52.142;9.960;2023-10-08T06:15:45;101457.94;;;11.31;100.00
39443;BME280;25147;52.142;9.960;2023-10-08T06:18:16;101375.06;;;10.76;100.00
39443;BME280;25147;52.142;9.960;2023-10-08T06:20:46;101443.13;;;11.18;100.00
39443;BME280;25147;52.142;9.960;2023-10-08T06:23:12;101470.16;;;11.43;100.00
39443;BME280;25147;52.142;9.960;2023-10-08T06:25:43;101384.63;;;10.99;100.00
39443;BME280;25147;52.142;9.960;2023-10-08T06:28:13;101426.53;;;11.19;100.00
39443;BME280;25147;52.142;9.960;2023-10-08T06:30:46;101478.03;;;11.38;100.00
39443;BME280;25147;52.142;9.960;2023-10-08T06:33:14;101486.72;;;11.50;100.00
39443;BME280;25147;52.142;9.960;2023-10-08T06:35:42;101429.13;;;11.19;100.00
39443;BME280;25147;52.142;9.960;2023-10-08T06:38:10;101450.97;;;11.30;100.00
39443;BME280;25147;52.142;9.960;2023-10-08T06:40:40;101454.47;;;11.23;100.00
39443;BME280;25147;52.142;9.960;2023-10-08T06:43:09;101500.72;;;11.52;100.00
39443;BME280;25147;52.142;9.960;2023-10-08T06:45:43;101491.09;;;11.48;100.00
39443;BME280;25147;52.142;9.960;2023-10-08T06:48:14;101471.91;;;11.41;100.00
39443;BME280;25147;52.142;9.960;2023-10-08T06:50:51;101458.81;;;11.27;100.00
39443;BME280;25147;52.142;9.960;2023-10-08T06:53:23;101457.97;;;11.30;100.00
39443;BME280;25147;52.142;9.960;2023-10-08T06:55:50;101503.31;;;11.69;100.00
39443;BME280;25147;52.142;9.960;2023-10-08T06:58:22;101504.16;;;11.69;100.00
39443;BME280;25147;52.142;9.960;2023-10-08T07:00:49;101513.78;;;11.67;100.00
39443;BME280;25147;52.142;9.960;2023-10-08T07:03:18;101529.50;;;11.78;100.00
39443;BME280;25147;52.142;9.960;2023-10-08T07:05:47;101542.63;;;11.79;100.00
39443;BME280;25147;52.142;9.960;2023-10-08T07:08:24;101485.00;;;11.49;100.00
39443;BME280;25147;52.142;9.960;2023-10-08T07:10:53;101532.09;;;11.87;100.00
39443;BME280;25147;52.142;9.960;2023-10-08T07:13:22;101469.28;;;11.50;100.00
39443;BME280;25147;52.142;9.960;2023-10-08T07:15:50;101525.13;;;11.84;100.00
39443;BME280;25147;52.142;9.960;2023-10-08T07:18:19;101474.44;;;11.65;100.00
39443;BME280;25147;52.142;9.960;2023-10-08T07:20:51;101446.56;;;11.38;100.00
39443;BME280;25147;52.142;9.960;2023-10-08T07:23:20;101480.59;;;11.55;100.00
39443;BME280;25147;52.142;9.960;2023-10-08T07:25:54;101365.47;;;10.83;100.00
39443;BME280;25147;52.142;9.960;2023-10-08T07:28:31;101496.41;;;11.40;100.00
39443;BME280;25147;52.142;9.960;2023-10-08T07:30:59;101564.53;;;11.64;100.00
39443;BME280;25147;52.142;9.960;2023-10-08T07:33:29;101542.69;;;11.45;100.00
39443;BME280;25147;52.142;9.960;2023-10-08T07:36:02;101568.91;;;11.47;100.00
39443;BME280;25147;52.142;9.960;2023-10-08T07:38:38;101538.38;;;11.20;100.00
39443;BME280;25147;52.142;9.960;2023-10-08T07:41:04;101536.59;;;11.13;100.00
39443;BME280;25147;52.142;9.960;2023-10-08T07:43:32;101546.22;;;11.28;100.00
39443;BME280;25147;52.142;9.960;2023-10-08T07:46:01;101570.69;;;11.40;100.00
39443;BME280;25147;52.142;9.960;2023-10-08T07:48:29;101564.56;;;11.38;100.00
39443;BME280;25147;52.142;9.960;2023-10-08T07:50:57;101466.75;;;10.96;100.00
39443;BME280;25147;52.142;9.960;2023-10-08T07:53:24;101514.78;;;11.26;100.00
39443;BME280;25147;52.142;9.960;2023-10-08T07:56:09;101494.69;;;11.14;100.00
39443;BME280;25147;52.142;9.960;2023-10-08T07:58:37;101576.78;;;11.62;100.00
39443;BME280;25147;52.142;9.960;2023-10-08T08:01:06;101521.72;;;11.35;100.00
39443;BME280;25147;52.142;9.960;2023-10-08T08:03:36;101559.31;;;11.52;100.00
39443;BME280;25147;52.142;9.960;2023-10-08T08:06:04;101442.31;;;10.76;100.00
39443;BME280;25147;52.142;9.960;2023-10-08T08:08:33;101502.53;;;11.07;100.00
39443;BME280;25147;52.142;9.960;2023-10-08T08:11:01;101521.75;;;11.16;100.00
39443;BME280;25147;52.142;9.960;2023-10-08T08:13:32;101584.66;;;11.42;100.00
39443;BME280;25147;52.142;9.960;2023-10-08T08:16:01;101524.41;;;11.19;100.00
39443;BME280;25147;52.142;9.960;2023-10-08T08:18:44;101527.88;;;11.28;100.00
39443;BME280;25147;52.142;9.960;2023-10-08T08:21:13;101464.13;;;10.90;100.00
39443;BME280;25147;52.142;9.960;2023-10-08T08:23:48;101171.00;;;9.13;100.00
39443;BME280;25147;52.142;9.960;2023-10-08T08:26:20;101235.50;;;9.43;100.00
39443;BME280;25147;52.142;9.960;2023-10-08T08:28:55;101450.16;;;10.82;100.00
39443;BME280;25147;52.142;9.960;2023-10-08T08:31:23;101350.66;;;10.20;100.00
39443;BME280;25147;52.142;9.960;2023-10-08T08:33:54;101397.81;;;10.53;100.00
39443;BME280;25147;52.142;9.960;2023-10-08T08:36:26;101271.28;;;9.74;100.00
39443;BME280;25147;52.142;9.960;2023-10-08T08:38:54;101404.78;;;10.55;100.00
39443;BME280;25147;52.142;9.960;2023-10-08T08:41:22;101225.09;;;9.71;100.00
39443;BME280;25147;52.142;9.960;2023-10-08T08:43:50;101271.31;;;9.95;100.00
39443;BME280;25147;52.142;9.960;2023-10-08T08:46:30;101265.16;;;10.01;100.00
39443;BME280;25147;52.142;9.960;2023-10-08T08:49:02;101382.91;;;10.82;100.00
39443;BME280;25147;52.142;9.960;2023-10-08T08:51:31;101505.94;;;11.58;100.00
39443;BME280;25147;52.142;9.960;2023-10-08T08:53:58;101340.19;;;10.62;100.00
39443;BME280;25147;52.142;9.960;2023-10-08T08:56:28;101210.25;;;9.76;100.00
39443;BME280;25147;52.142;9.960;2023-10-08T08:58:59;101637.84;;;12.32;100.00
39443;BME280;25147;52.142;9.960;2023-10-08T09:01:27;101280.00;;;10.22;100.00
39443;BME280;25147;52.142;9.960;2023-10-08T09:04:00;101650.03;;;12.39;100.00
39443;BME280;25147;52.142;9.960;2023-10-08T09:06:31;101441.41;;;11.12;100.00
39443;BME280;25147;52.142;9.960;2023-10-08T09:08:59;101409.09;;;10.98;100.00
39443;BME280;25147;52.142;9.960;2023-10-08T09:11:40;101581.94;;;11.96;100.00
39443;BME280;25147;52.142;9.960;2023-10-08T09:14:08;101546.97;;;11.80;100.00
39443;BME280;25147;52.142;9.960;2023-10-08T09:16:37;101288.75;;;10.30;100.00
39443;BME280;25147;52.142;9.960;2023-10-08T09:19:05;101224.22;;;9.95;100.00
39443;BME280;25147;52.142;9.960;2023-10-08T09:21:37;101318.41;;;10.35;100.00
39443;BME280;25147;52.142;9.960;2023-10-08T09:24:05;101588.94;;;12.00;100.00
39443;BME280;25147;52.142;9.960;2023-10-08T09:26:36;101660.53;;;12.47;100.00
39443;BME280;25147;52.142;9.960;2023-10-08T09:29:05;101491.97;;;11.59;99.71
39443;BME280;25147;52.142;9.960;2023-10-08T09:31:34;101559.19;;;11.86;97.72
39443;BME280;25147;52.142;9.960;2023-10-08T09:34:04;101313.19;;;10.31;93.52
39443;BME280;25147;52.142;9.960;2023-10-08T09:36:32;101506.84;;;11.55;93.95
39443;BME280;25147;52.142;9.960;2023-10-08T09:39:00;101485.94;;;11.34;94.85
39443;BME280;25147;52.142;9.960;2023-10-08T09:41:31;101257.34;;;10.06;92.95
39443;BME280;25147;52.142;9.960;2023-10-08T09:43:59;101531.25;;;11.68;95.08
39443;BME280;25147;52.142;9.960;2023-10-08T09:46:30;101521.69;;;11.61;92.21
39443;BME280;25147;52.142;9.960;2023-10-08T09:49:00;101472.81;;;11.15;90.70
39443;BME280;25147;52.142;9.960;2023-10-08T09:51:32;101525.19;;;11.64;93.60
39443;BME280;25147;52.142;9.960;2023-10-08T09:54:05;101471.06;;;11.19;91.76
39443;BME280;25147;52.142;9.960;2023-10-08T09:56:42;101416.94;;;11.12;91.97
39443;BME280;25147;52.142;9.960;2023-10-08T09:59:10;101657.81;;;12.65;93.72
39443;BME280;25147;52.142;9.960;2023-10-08T10:01:41;101590.56;;;12.29;95.31
39443;BME280;25147;52.142;9.960;2023-10-08T10:04:10;101252.09;;;10.32;91.89
39443;BME280;25147;52.142;9.960;2023-10-08T10:06:41;101510.25;;;11.93;92.49
39443;BME280;25147;52.142;9.960;2023-10-08T10:09:08;101681.41;;;12.82;86.26
39443;BME280;25147;52.142;9.960;2023-10-08T10:11:47;101337.56;;;10.79;88.08
39443;BME280;25147;52.142;9.960;2023-10-08T10:14:14;101571.38;;;12.16;89.77
39443;BME280;25147;52.142;9.960;2023-10-08T10:16:43;101452.53;;;11.77;89.53
39443;BME280;25147;52.142;9.960;2023-10-08T10:19:16;101489.19;;;12.02;90.44
39443;BME280;25147;52.142;9.960;2023-10-08T10:21:45;101487.41;;;12.10;91.36
39443;BME280;25147;52.142;9.960;2023-10-08T10:24:22;101338.31;;;11.12;91.87
39443;BME280;25147;52.142;9.960;2023-10-08T10:26:49;101668.06;;;13.12;87.80
39443;BME280;25147;52.142;9.960;2023-10-08T10:29:22;101389.75;;;11.47;84.18
39443;BME280;25147;52.142;9.960;2023-10-08T10:31:53;101581.66;;;12.61;84.36
39443;BME280;25147;52.142;9.960;2023-10-08T10:34:23;101478.78;;;11.76;83.42
39443;BME280;25147;52.142;9.960;2023-10-08T10:36:55;101687.28;;;13.23;84.67
39443;BME280;25147;52.142;9.960;2023-10-08T10:39:26;101313.91;;;10.97;82.96
39443;BME280;25147;52.142;9.960;2023-10-08T10:41:57;101567.66;;;12.60;84.11
39443;BME280;25147;52.142;9.960;2023-10-08T10:44:27;101575.66;;;12.39;84.58
39443;BME280;25147;52.142;9.960;2023-10-08T10:46:56;101650.69;;;12.88;84.30
39443;BME280;25147;52.142;9.960;2023-10-08T10:52:07;101702.19;;;13.22;84.23
39443;BME280;25147;52.142;9.960;2023-10-08T10:54:37;101682.13;;;13.06;85.74
39443;BME280;25147;52.142;9.960;2023-10-08T10:57:03;101655.91;;;12.97;86.16
39443;BME280;25147;52.142;9.960;2023-10-08T10:59:43;101531.81;;;12.47;85.39
39443;BME280;25147;52.142;9.960;2023-10-08T11:02:21;101632.94;;;13.23;83.61
39443;BME280;25147;52.142;9.960;2023-10-08T11:04:56;101686.94;;;13.72;81.32
39443;BME280;25147;52.142;9.960;2023-10-08T11:07:34;101666.75;;;13.70;81.50
39443;BME280;25147;52.142;9.960;2023-10-08T11:10:05;101676.34;;;13.80;81.86
39443;BME280;25147;52.142;9.960;2023-10-08T11:12:35;101699.06;;;13.89;81.23
39443;BME280;25147;52.142;9.960;2023-10-08T11:15:12;101716.59;;;13.90;80.00
39443;BME280;25147;52.142;9.960;2023-10-08T11:17:41;101693.06;;;13.74;80.36
39443;BME280;25147;52.142;9.960;2023-10-08T11:20:23;101692.03;;;13.88;80.05
39443;BME280;25147;52.142;9.960;2023-10-08T11:22:54;101679.81;;;13.83;79.90
39443;BME280;25147;52.142;9.960;2023-10-08T11:25:21;101531.47;;;13.01;77.89
39443;BME280;25147;52.142;9.960;2023-10-08T11:27:53;101588.22;;;13.23;80.06
39443;BME280;25147;52.142;9.960;2023-10-08T11:30:27;101538.66;;;12.74;80.87
39443;BME280;25147;52.142;9.960;2023-10-08T11:32:57;101473.19;;;12.48;77.93
39443;BME280;25147;52.142;9.960;2023-10-08T11:35:25;101609.88;;;13.56;77.21
39443;BME280;25147;52.142;9.960;2023-10-08T11:37:58;101612.28;;;13.81;80.81
39443;BME280;25147;52.142;9.960;2023-10-08T11:40:27;101494.56;;;13.09;80.88
39443;BME280;25147;52.142;9.960;2023-10-08T11:42:55;101640.16;;;14.00;76.76
39443;BME280;25147;52.142;9.960;2023-10-08T11:45:24;101450.94;;;12.91;78.70
39443;BME280;25147;52.142;9.960;2023-10-08T11:47:52;101464.03;;;12.94;80.03
39443;BME280;25147;52.142;9.960;2023-10-08T11:50:25;101609.72;;;13.73;80.30
39443;BME280;25147;52.142;9.960;2023-10-08T11:53:05;101695.94;;;14.36;79.41
39443;BME280;25147;52.142;9.960;2023-10-08T11:55:33;101675.91;;;14.21;78.24
39443;BME280;25147;52.142;9.960;2023-10-08T11:58:02;101653.91;;;14.25;79.44
39443;BME280;25147;52.142;9.960;2023-10-08T12:00:36;101495.09;;;13.46;80.42
39443;BME280;25147;52.142;9.960;2023-10-08T12:03:09;101521.09;;;13.74;79.08
39443;BME280;25147;52.142;9.960;2023-10-08T12:05:37;101494.19;;;13.49;78.50
39443;BME280;25147;52.142;9.960;2023-10-08T12:08:14;101643.13;;;14.47;78.25
39443;BME280;25147;52.142;9.960;2023-10-08T12:10:43;101625.78;;;14.29;77.94
39443;BME280;25147;52.142;9.960;2023-10-08T12:13:11;101643.38;;;14.25;79.18
39443;BME280;25147;52.142;9.960;2023-10-08T12:15:38;101473.38;;;13.27;76.31
39443;BME280;25147;52.142;9.960;2023-10-08T12:18:09;101660.81;;;14.37;77.90
39443;BME280;25147;52.142;9.960;2023-10-08T12:20:41;101639.00;;;14.24;77.91
39443;BME280;25147;52.142;9.960;2023-10-08T12:23:09;101648.50;;;14.38;75.13
39443;BME280;25147;52.142;9.960;2023-10-08T12:25:40;101622.38;;;14.19;77.33
39443;BME280;25147;52.142;9.960;2023-10-08T12:28:16;101617.13;;;14.16;80.72
39443;BME280;25147;52.142;9.960;2023-10-08T12:30:44;101645.09;;;14.28;80.76
39443;BME280;25147;52.142;9.960;2023-10-08T12:33:11;101615.31;;;14.23;80.87
39443;BME280;25147;52.142;9.960;2023-10-08T12:35:42;101451.34;;;13.39;75.45
39443;BME280;25147;52.142;9.960;2023-10-08T12:38:13;101375.66;;;12.82;73.82
39443;BME280;25147;52.142;9.960;2023-10-08T12:40:44;101428.81;;;13.13;74.46
39443;BME280;25147;52.142;9.960;2023-10-08T12:43:21;101242.31;;;12.20;74.16
39443;BME280;25147;52.142;9.960;2023-10-08T12:45:53;101638.47;;;14.69;76.43
39443;BME280;25147;52.142;9.960;2023-10-08T12:48:23;101277.78;;;12.61;73.89
39443;BME280;25147;52.142;9.960;2023-10-08T12:50:52;101295.28;;;12.64;73.14
39443;BME280;25147;52.142;9.960;2023-10-08T12:53:25;101428.34;;;13.55;75.07
39443;BME280;25147;52.142;9.960;2023-10-08T12:56:00;101570.25;;;14.43;74.99
39443;BME280;25147;52.142;9.960;2023-10-08T12:58:33;101376.03;;;13.30;74.59
39443;BME280;25147;52.142;9.960;2023-10-08T13:01:06;101479.66;;;13.90;72.06
39443;BME280;25147;52.142;9.960;2023-10-08T13:03:35;101505.88;;;13.99;74.38
39443;BME280;25147;52.142;9.960;2023-10-08T13:06:08;101307.19;;;12.96;77.49
39443;BME280;25147;52.142;9.960;2023-10-08T13:08:41;101211.38;;;12.52;77.52